Terminal Aerodrome Forecast
Issued by NWS

Home | Current Version | Previous Version | Text Only | Print | Product List | Glossary On
Versions: 1 2 3 4 5 6 7 8 9 10 11 12
454
FTUS45 KREV 222343
TAFMMH
TAF
KMMH 222343Z 2300/2324 12007KT P6SM SCT200
     FM230300 VRB04KT P6SM SCT200
     FM231800 22011KT P6SM SCT120 BKN200=

USA.gov is the U.S. government's official web portal to all federal, state and local government web resources and services.